createdAt,value
2022-09-21T00:01:28.293Z,7.82
2022-09-21T00:03:58.848Z,7.88
2022-09-21T00:06:27.824Z,7.55
2022-09-21T00:08:56.183Z,8.88
2022-09-21T00:11:26.279Z,8.35
2022-09-21T00:13:55.521Z,8.50
2022-09-21T00:16:23.907Z,8.15
2022-09-21T00:18:51.973Z,8.10
2022-09-21T00:21:19.278Z,7.93
2022-09-21T00:23:46.476Z,8.57
2022-09-21T00:26:20.473Z,8.20
2022-09-21T00:28:48.822Z,8.07
2022-09-21T00:31:18.814Z,8.25
2022-09-21T00:33:46.418Z,9.07
2022-09-21T00:36:17.901Z,8.05
2022-09-21T00:38:49.970Z,8.10
2022-09-21T00:41:17.325Z,9.23
2022-09-21T00:44:06.221Z,8.48
2022-09-21T00:46:35.604Z,8.35
2022-09-21T00:49:03.190Z,7.30
2022-09-21T00:51:30.706Z,7.93
2022-09-21T00:54:14.739Z,7.53
2022-09-21T00:56:43.246Z,7.10
2022-09-21T00:59:13.609Z,7.60
2022-09-21T01:01:43.102Z,7.38
2022-09-21T01:04:12.173Z,6.85
2022-09-21T01:06:41.112Z,6.30
2022-09-21T01:09:09.227Z,6.28
2022-09-21T01:11:39.056Z,6.88
2022-09-21T01:14:15.467Z,5.80
2022-09-21T01:17:02.565Z,6.35
2022-09-21T01:22:03.116Z,5.80
2022-09-21T01:24:52.076Z,7.05
2022-09-21T01:27:31.536Z,6.60
2022-09-21T01:30:11.489Z,6.07
2022-09-21T01:33:02.945Z,5.70
2022-09-21T01:35:35.914Z,5.50
2022-09-21T01:38:08.079Z,6.05
2022-09-21T01:40:43.771Z,6.00
2022-09-21T01:43:15.594Z,5.63
2022-09-21T01:45:49.697Z,5.25
2022-09-21T01:48:18.699Z,5.68
2022-09-21T01:50:51.830Z,5.45
2022-09-21T01:53:28.570Z,5.47
2022-09-21T01:55:59.750Z,5.32
2022-09-21T01:58:42.362Z,5.72
2022-09-21T02:01:15.178Z,5.10
2022-09-21T02:03:50.275Z,5.20
2022-09-21T02:06:19.309Z,5.53
2022-09-21T02:08:47.184Z,4.97
2022-09-21T02:11:14.949Z,4.82
2022-09-21T02:13:47.145Z,4.95
2022-09-21T02:16:20.490Z,5.55
2022-09-21T02:19:12.247Z,4.75
2022-09-21T02:22:00.633Z,4.93
2022-09-21T02:24:41.316Z,4.50
2022-09-21T02:27:47.654Z,5.00
2022-09-21T02:30:17.880Z,4.80
2022-09-21T02:33:14.129Z,4.63
2022-09-21T02:35:54.371Z,5.07
2022-09-21T02:38:41.160Z,4.95
2022-09-21T02:41:15.967Z,4.85
2022-09-21T02:43:49.422Z,4.93
2022-09-21T02:46:24.325Z,4.35
2022-09-21T02:49:10.809Z,4.88
2022-09-21T02:51:47.458Z,5.15
2022-09-21T02:54:17.934Z,4.72
2022-09-21T02:56:48.431Z,4.50
2022-09-21T02:59:16.807Z,5.25
2022-09-21T03:01:44.401Z,4.63
2022-09-21T03:04:11.949Z,4.60
2022-09-21T03:06:39.210Z,5.28
2022-09-21T03:09:06.416Z,4.30
2022-09-21T03:11:36.169Z,4.75
2022-09-21T03:14:08.914Z,4.60
2022-09-21T03:16:37.465Z,4.93
2022-09-21T03:19:05.791Z,4.78
2022-09-21T03:21:33.008Z,4.47
2022-09-21T03:24:00.826Z,5.00
2022-09-21T03:26:28.086Z,5.28
2022-09-21T03:28:55.571Z,5.63
2022-09-21T03:31:23.005Z,5.45
2022-09-21T03:33:50.287Z,5.57
2022-09-21T03:36:17.464Z,5.45
2022-09-21T03:38:45.058Z,5.60
2022-09-21T03:41:13.580Z,5.55
2022-09-21T03:43:40.810Z,5.20
2022-09-21T03:46:08.529Z,5.63
2022-09-21T03:48:35.804Z,5.32
2022-09-21T03:51:02.932Z,5.65
2022-09-21T03:53:30.497Z,5.60
2022-09-21T03:55:57.950Z,5.28
2022-09-21T03:58:25.091Z,5.80
2022-09-21T04:00:52.870Z,5.50
2022-09-21T04:03:20.032Z,5.47
2022-09-21T04:05:47.165Z,5.25
2022-09-21T04:08:14.513Z,5.55
2022-09-21T04:10:42.804Z,5.75
2022-09-21T04:13:10.054Z,5.07
2022-09-21T04:15:37.707Z,5.03
2022-09-21T04:18:05.976Z,5.93
2022-09-21T04:20:33.278Z,6.13
2022-09-21T04:23:00.685Z,5.13
2022-09-21T04:25:28.103Z,4.80
2022-09-21T04:27:55.706Z,5.10
2022-09-21T04:30:23.374Z,5.82
2022-09-21T04:32:50.621Z,4.95
2022-09-21T04:35:17.871Z,5.53
2022-09-21T04:37:45.457Z,6.07
2022-09-21T04:40:13.027Z,6.45
2022-09-21T04:42:40.580Z,6.55
2022-09-21T04:45:08.615Z,6.60
2022-09-21T04:47:35.853Z,6.38
2022-09-21T04:50:03.250Z,6.82
2022-09-21T04:52:30.624Z,6.20
2022-09-21T04:54:57.809Z,6.30
2022-09-21T04:57:25.007Z,6.03
2022-09-21T04:59:52.430Z,5.53
2022-09-21T05:02:19.713Z,5.85
2022-09-21T05:04:50.811Z,5.90
2022-09-21T05:07:18.625Z,5.13
2022-09-21T05:10:04.265Z,5.63
2022-09-21T05:12:33.385Z,5.25
2022-09-21T05:15:03.609Z,6.07
2022-09-21T05:17:30.795Z,5.57
2022-09-21T05:19:58.290Z,5.57
2022-09-21T05:22:25.473Z,5.38
2022-09-21T05:24:52.741Z,5.20
2022-09-21T05:27:20.144Z,5.28
2022-09-21T05:29:47.739Z,5.45
2022-09-21T05:32:36.275Z,5.88
2022-09-21T05:35:07.158Z,6.50
2022-09-21T05:37:41.000Z,5.63
2022-09-21T05:40:11.063Z,5.65
2022-09-21T05:42:38.786Z,5.00
2022-09-21T05:45:09.173Z,5.40
2022-09-21T05:47:44.039Z,5.68
2022-09-21T05:50:17.313Z,5.65
2022-09-21T05:53:05.566Z,5.80
2022-09-21T05:56:03.140Z,5.78
2022-09-21T05:59:02.371Z,5.85
2022-09-21T06:01:32.313Z,5.85
2022-09-21T06:04:01.460Z,5.82
2022-09-21T06:06:28.697Z,6.65
2022-09-21T06:08:55.961Z,7.60
2022-09-21T06:11:23.802Z,6.43
2022-09-21T06:13:50.991Z,6.50
2022-09-21T06:16:18.355Z,6.80
2022-09-21T06:18:45.755Z,7.25
2022-09-21T06:21:13.042Z,7.13
2022-09-21T06:23:40.238Z,7.63
2022-09-21T06:26:07.768Z,7.00
2022-09-21T06:28:35.049Z,6.75
2022-09-21T06:31:02.256Z,6.90
2022-09-21T06:33:29.861Z,7.22
2022-09-21T06:35:59.099Z,7.30
2022-09-21T06:38:28.090Z,6.80
2022-09-21T06:40:56.133Z,7.20
2022-09-21T06:43:23.342Z,6.57
2022-09-21T06:45:55.663Z,6.00
2022-09-21T06:48:23.836Z,6.47
2022-09-21T06:50:51.761Z,6.38
2022-09-21T06:53:19.230Z,5.80
2022-09-21T06:55:46.614Z,6.63
2022-09-21T06:58:13.797Z,6.03
2022-09-21T07:00:41.098Z,5.85
2022-09-21T07:03:12.862Z,5.80
2022-09-21T07:05:40.234Z,5.60
2022-09-21T07:10:04.887Z,5.55
2022-09-21T07:10:59.198Z,5.68
2022-09-21T07:13:30.334Z,5.38
2022-09-21T07:15:57.814Z,5.50
2022-09-21T07:18:25.435Z,5.50
2022-09-21T07:20:52.720Z,5.60
2022-09-21T07:23:22.341Z,5.95
2022-09-21T07:25:52.424Z,5.47
2022-09-21T07:28:20.012Z,5.30
2022-09-21T07:30:47.478Z,5.18
2022-09-21T07:33:14.682Z,4.90
2022-09-21T07:35:54.054Z,5.05
2022-09-21T07:38:21.874Z,4.63
2022-09-21T07:40:49.162Z,5.15
2022-09-21T07:43:16.485Z,4.95
2022-09-21T07:45:44.198Z,4.40
2022-09-21T07:48:11.471Z,4.38
2022-09-21T07:50:38.705Z,3.97
2022-09-21T07:53:06.130Z,4.38
2022-09-21T07:55:33.684Z,4.38
2022-09-21T07:58:19.572Z,4.22
2022-09-21T08:00:47.238Z,3.50
2022-09-21T08:03:14.516Z,3.40
2022-09-21T08:05:41.692Z,3.63
2022-09-21T08:08:09.142Z,3.10
2022-09-21T08:10:37.299Z,3.60
2022-09-21T08:13:04.531Z,3.50
2022-09-21T08:15:48.688Z,3.50
2022-09-21T08:18:16.349Z,3.67
2022-09-21T08:20:44.108Z,2.95
2022-09-21T08:23:11.958Z,3.08
2022-09-21T08:25:39.178Z,3.08
2022-09-21T08:28:09.801Z,3.30
2022-09-21T08:30:37.597Z,3.10
2022-09-21T08:33:07.067Z,3.25
2022-09-21T08:35:34.748Z,3.60
2022-09-21T08:38:02.097Z,4.05
2022-09-21T08:40:29.721Z,3.10
2022-09-21T08:43:07.642Z,2.88
2022-09-21T08:45:40.939Z,2.50
2022-09-21T08:48:25.232Z,3.20
2022-09-21T08:50:58.041Z,2.90
2022-09-21T08:53:34.545Z,2.50
2022-09-21T08:56:03.031Z,2.53
2022-09-21T08:58:32.409Z,2.47
2022-09-21T09:01:21.646Z,2.10
2022-09-21T09:04:13.939Z,2.25
2022-09-21T09:06:58.055Z,2.28
2022-09-21T09:09:48.691Z,3.05
2022-09-21T09:12:51.424Z,2.70
2022-09-21T09:15:40.939Z,3.10
2022-09-21T09:18:26.786Z,2.70
2022-09-21T09:21:02.076Z,2.75
2022-09-21T09:23:32.449Z,2.60
2022-09-21T09:26:05.164Z,2.70
2022-09-21T09:28:42.264Z,2.85
2022-09-21T09:31:34.737Z,2.88
2022-09-21T09:34:11.353Z,2.55
2022-09-21T09:36:58.315Z,3.13
2022-09-21T09:39:28.835Z,2.30
2022-09-21T09:42:23.464Z,2.55
2022-09-21T09:45:15.037Z,2.70
2022-09-21T09:48:23.567Z,2.35
2022-09-21T09:55:50.150Z,1.90
2022-09-21T09:58:31.426Z,2.20
2022-09-21T10:00:59.204Z,1.90
2022-09-21T10:03:28.415Z,2.20
2022-09-21T10:05:56.141Z,2.38
2022-09-21T10:08:46.790Z,2.47
2022-09-21T10:11:18.019Z,2.38
2022-09-21T10:13:50.429Z,2.17
2022-09-21T10:16:23.401Z,2.20
2022-09-21T10:18:59.042Z,2.25
2022-09-21T10:21:39.281Z,2.13
2022-09-21T10:24:13.512Z,2.25
2022-09-21T10:26:54.773Z,2.03
2022-09-21T10:29:22.164Z,1.80
2022-09-21T10:32:18.910Z,1.75
2022-09-21T10:35:08.191Z,2.00
2022-09-21T10:37:38.832Z,1.58
2022-09-21T10:40:22.787Z,1.77
2022-09-21T10:42:55.197Z,1.63
2022-09-21T10:45:26.622Z,1.70
2022-09-21T10:47:58.607Z,1.70
2022-09-21T10:50:30.607Z,1.70
2022-09-21T10:53:11.743Z,2.00
2022-09-21T10:56:21.935Z,1.40
2022-09-21T10:59:31.235Z,2.97
2022-09-21T11:02:00.423Z,1.25
2022-09-21T11:04:38.853Z,1.50
2022-09-21T11:07:12.687Z,1.63
2022-09-21T11:09:44.227Z,1.45
2022-09-21T11:12:33.017Z,1.50
2022-09-21T11:15:34.818Z,1.30
2022-09-21T11:18:11.535Z,1.40
2022-09-21T11:20:59.550Z,1.55
2022-09-21T11:23:32.822Z,1.60
2022-09-21T11:26:25.487Z,1.52
2022-09-21T11:29:07.606Z,1.38
2022-09-21T11:31:58.722Z,1.30
2022-09-21T11:34:33.931Z,1.40
2022-09-21T11:37:26.292Z,1.52
2022-09-21T11:40:15.473Z,1.90
2022-09-21T11:42:54.876Z,1.67
2022-09-21T11:45:50.743Z,1.40
2022-09-21T11:48:20.819Z,1.90
2022-09-21T11:54:20.837Z,1.77
2022-09-21T11:57:04.955Z,1.70
2022-09-21T11:59:43.121Z,1.90
2022-09-21T12:05:33.929Z,1.63
2022-09-21T12:08:25.964Z,1.70
2022-09-21T12:11:14.757Z,2.03
2022-09-21T12:14:25.061Z,1.63
2022-09-21T12:17:05.706Z,1.30
2022-09-21T12:19:42.135Z,1.98
2022-09-21T12:22:33.810Z,1.25
2022-09-21T12:25:17.167Z,1.10
2022-09-21T12:28:10.635Z,1.30
2022-09-21T12:30:43.169Z,1.20
2022-09-21T12:33:26.128Z,1.25
2022-09-21T12:36:09.992Z,1.13
2022-09-21T12:39:10.883Z,1.40
2022-09-21T12:42:16.709Z,1.50
2022-09-21T12:44:54.649Z,1.45
2022-09-21T12:47:32.585Z,1.20
2022-09-21T12:50:07.949Z,1.30
2022-09-21T12:52:37.785Z,1.40
2022-09-21T12:55:29.007Z,1.23
2022-09-21T12:58:17.096Z,1.50
2022-09-21T13:01:36.871Z,1.50
2022-09-21T13:05:01.499Z,1.38
2022-09-21T13:07:44.742Z,1.50
2022-09-21T13:10:18.278Z,1.40
2022-09-21T13:12:53.283Z,1.25
2022-09-21T13:15:32.707Z,1.50
2022-09-21T13:18:05.856Z,1.10
2022-09-21T13:20:36.601Z,1.20
2022-09-21T13:23:04.409Z,1.10
2022-09-21T13:25:37.585Z,1.23
2022-09-21T13:28:24.296Z,1.02
2022-09-21T13:31:40.286Z,1.30
2022-09-21T13:34:24.356Z,1.50
2022-09-21T13:37:14.408Z,1.40
2022-09-21T13:39:45.159Z,1.42
2022-09-21T13:42:31.053Z,1.52
2022-09-21T13:45:13.715Z,1.60
2022-09-21T13:47:47.977Z,1.40
2022-09-21T13:50:41.585Z,1.40
2022-09-21T13:53:19.461Z,1.40
2022-09-21T13:55:59.880Z,1.55
2022-09-21T13:58:32.853Z,1.30
2022-09-21T14:01:03.509Z,1.75
2022-09-21T14:03:43.891Z,1.45
2022-09-21T14:06:35.724Z,1.60
2022-09-21T14:09:07.201Z,1.70
2022-09-21T14:11:40.512Z,2.15
2022-09-21T14:14:37.356Z,2.10
2022-09-21T14:17:40.699Z,2.15
2022-09-21T14:20:32.698Z,2.67
2022-09-21T14:23:12.437Z,1.90
2022-09-21T14:25:52.324Z,2.00
2022-09-21T14:28:34.980Z,2.13
2022-09-21T14:31:19.273Z,1.75
2022-09-21T14:33:55.077Z,1.50
2022-09-21T14:36:47.102Z,1.95
2022-09-21T14:39:22.119Z,1.88
2022-09-21T14:41:53.530Z,2.80
2022-09-21T14:44:30.214Z,2.15
2022-09-21T14:47:22.734Z,2.05
2022-09-21T14:50:13.005Z,2.08
2022-09-21T14:53:10.606Z,3.85
2022-09-21T14:55:53.036Z,3.97
2022-09-21T14:59:09.919Z,3.50
2022-09-21T15:01:41.471Z,2.45
2022-09-21T15:04:40.663Z,3.22
2022-09-21T15:07:42.892Z,3.97
2022-09-21T15:10:43.739Z,5.75
2022-09-21T15:13:53.537Z,8.98
2022-09-21T15:16:30.452Z,4.75
2022-09-21T15:19:35.215Z,5.88
2022-09-21T15:22:19.138Z,5.30
2022-09-21T15:24:58.107Z,4.93
2022-09-21T15:27:33.921Z,4.57
2022-09-21T15:30:04.688Z,4.38
2022-09-21T15:32:41.270Z,3.67
2022-09-21T15:37:48.221Z,3.33
2022-09-21T15:40:26.031Z,3.00
2022-09-21T15:43:22.674Z,2.90
2022-09-21T15:45:57.218Z,2.30
2022-09-21T15:48:26.429Z,2.60
2022-09-21T15:51:01.327Z,2.20
2022-09-21T15:53:33.978Z,2.50
2022-09-21T15:56:01.698Z,2.20
2022-09-21T15:58:37.235Z,2.80
2022-09-21T16:01:17.360Z,2.70
2022-09-21T16:03:44.743Z,3.10
2022-09-21T16:06:26.678Z,3.35
2022-09-21T16:08:54.752Z,3.92
2022-09-21T16:11:28.017Z,3.38
2022-09-21T16:14:32.570Z,6.55
2022-09-21T16:17:25.316Z,4.13
2022-09-21T16:19:53.882Z,3.88
2022-09-21T16:22:37.768Z,5.30
2022-09-21T16:25:25.424Z,5.70
2022-09-21T16:28:07.186Z,6.60
2022-09-21T16:30:51.480Z,6.95
2022-09-21T16:33:46.269Z,6.13
2022-09-21T16:36:32.509Z,7.18
2022-09-21T16:39:01.457Z,7.23
2022-09-21T16:41:35.923Z,6.40
2022-09-21T16:44:04.157Z,5.35
2022-09-21T16:46:33.776Z,5.88
2022-09-21T16:49:02.130Z,4.43
2022-09-21T16:51:34.577Z,4.93
2022-09-21T16:54:03.123Z,5.05
2022-09-21T16:56:31.262Z,4.53
2022-09-21T16:59:00.457Z,3.78
2022-09-21T17:01:28.080Z,2.97
2022-09-21T17:03:58.124Z,2.53
2022-09-21T17:06:25.645Z,11.90
2022-09-21T17:08:53.217Z,3.97
2022-09-21T17:11:20.613Z,4.10
2022-09-21T17:13:51.619Z,3.40
2022-09-21T17:16:20.420Z,3.45
2022-09-21T17:18:48.965Z,4.45
2022-09-21T17:21:17.144Z,4.20
2022-09-21T17:23:45.511Z,4.28
2022-09-21T17:26:21.090Z,3.92
2022-09-21T17:28:48.916Z,4.43
2022-09-21T17:31:16.940Z,5.18
2022-09-21T17:33:46.144Z,5.88
2022-09-21T17:36:15.052Z,6.22
2022-09-21T17:38:42.781Z,6.72
2022-09-21T17:41:24.752Z,6.72
2022-09-21T17:44:05.344Z,8.20
2022-09-21T17:46:41.221Z,9.48
2022-09-21T17:49:11.488Z,9.68
2022-09-21T17:51:57.533Z,10.68
2022-09-21T17:54:25.174Z,10.75
2022-09-21T17:56:57.874Z,12.10
2022-09-21T17:59:32.635Z,11.85
2022-09-21T18:02:01.396Z,12.93
2022-09-21T18:04:34.691Z,12.43
2022-09-21T18:07:02.861Z,10.20
2022-09-21T18:09:30.752Z,9.82
2022-09-21T18:12:20.383Z,9.15
2022-09-21T18:15:06.389Z,7.45
2022-09-21T18:17:49.055Z,7.15
2022-09-21T18:20:43.858Z,7.65
2022-09-21T18:23:42.403Z,6.38
2022-09-21T18:26:16.497Z,5.88
2022-09-21T18:28:46.245Z,6.13
2022-09-21T18:31:25.769Z,36.25
2022-09-21T18:34:13.270Z,6.60
2022-09-21T18:37:12.757Z,6.15
2022-09-21T18:39:58.614Z,7.57
2022-09-21T18:42:45.114Z,7.95
2022-09-21T18:45:23.394Z,8.20
2022-09-21T18:48:17.070Z,8.32
2022-09-21T18:51:22.067Z,7.43
2022-09-21T18:53:56.125Z,7.60
2022-09-21T18:56:25.170Z,6.85
2022-09-21T18:58:53.758Z,7.18
2022-09-21T19:01:22.811Z,6.30
2022-09-21T19:03:51.179Z,6.38
2022-09-21T19:06:26.417Z,5.50
2022-09-21T19:09:14.956Z,5.45
2022-09-21T19:12:04.022Z,6.20
2022-09-21T19:14:36.688Z,6.72
2022-09-21T19:17:35.266Z,5.72
2022-09-21T19:20:08.622Z,6.05
2022-09-21T19:22:45.407Z,5.40
2022-09-21T19:25:23.127Z,5.78
2022-09-21T19:28:00.478Z,6.07
2022-09-21T19:30:28.179Z,5.20
2022-09-21T19:33:02.586Z,5.00
2022-09-21T19:35:29.886Z,4.63
2022-09-21T19:37:59.786Z,4.22
2022-09-21T19:40:34.449Z,4.28
2022-09-21T19:43:29.366Z,4.40
2022-09-21T19:46:23.944Z,4.20
2022-09-21T19:48:59.661Z,3.97
2022-09-21T19:51:45.717Z,3.70
2022-09-21T19:54:37.687Z,3.72
2022-09-21T19:57:35.184Z,3.15
2022-09-21T20:00:05.441Z,3.33
2022-09-21T20:02:37.536Z,3.33
2022-09-21T20:05:12.802Z,3.25
2022-09-21T20:08:04.338Z,3.35
2022-09-21T20:10:35.020Z,22.88
2022-09-21T20:13:24.007Z,3.50
2022-09-21T20:16:00.018Z,3.35
2022-09-21T20:18:53.356Z,3.83
2022-09-21T20:21:22.342Z,3.50
2022-09-21T20:23:58.401Z,3.72
2022-09-21T20:26:27.494Z,3.50
2022-09-21T20:28:55.528Z,3.53
2022-09-21T20:31:25.630Z,3.80
2022-09-21T20:33:53.150Z,4.25
2022-09-21T20:36:20.620Z,3.55
2022-09-21T20:38:48.118Z,4.53
2022-09-21T20:41:17.234Z,3.50
2022-09-21T20:43:44.377Z,4.20
2022-09-21T20:46:11.933Z,4.00
2022-09-21T20:48:40.095Z,3.95
2022-09-21T20:51:07.389Z,3.90
2022-09-21T20:53:34.850Z,4.25
2022-09-21T20:56:03.465Z,4.13
2022-09-21T20:58:31.026Z,4.70
2022-09-21T21:01:08.790Z,4.28
2022-09-21T21:03:36.659Z,4.63
2022-09-21T21:06:16.007Z,4.50
2022-09-21T21:08:43.363Z,4.95
2022-09-21T21:11:10.910Z,5.28
2022-09-21T21:13:38.079Z,5.18
2022-09-21T21:16:11.584Z,4.95
2022-09-21T21:18:42.746Z,5.13
2022-09-21T21:21:11.105Z,5.10
2022-09-21T21:23:57.150Z,4.88
2022-09-21T21:26:43.816Z,4.45
2022-09-21T21:29:11.901Z,4.85
2022-09-21T21:31:40.040Z,4.07
2022-09-21T21:34:07.531Z,3.65
2022-09-21T21:36:34.823Z,4.20
2022-09-21T21:39:02.217Z,4.25
2022-09-21T21:41:31.201Z,3.92
2022-09-21T21:43:59.099Z,3.70
2022-09-21T21:46:27.695Z,4.05
2022-09-21T21:48:54.834Z,3.80
2022-09-21T21:51:22.174Z,3.67
2022-09-21T21:53:49.640Z,3.80
2022-09-21T21:56:18.765Z,3.33
2022-09-21T21:58:46.179Z,4.57
2022-09-21T22:01:19.320Z,3.28
2022-09-21T22:03:47.097Z,3.50
2022-09-21T22:06:14.483Z,3.65
2022-09-21T22:08:41.706Z,3.53
2022-09-21T22:11:09.323Z,3.25
2022-09-21T22:13:39.063Z,3.25
2022-09-21T22:16:17.818Z,3.65
2022-09-21T22:18:46.357Z,3.58
2022-09-21T22:21:22.418Z,4.00
2022-09-21T22:23:55.019Z,3.75
2022-09-21T22:26:22.757Z,3.50
2022-09-21T22:28:56.015Z,3.20
2022-09-21T22:31:26.812Z,4.13
2022-09-21T22:33:55.614Z,3.70
2022-09-21T22:36:25.002Z,3.60
2022-09-21T22:38:53.846Z,3.67
2022-09-21T22:41:32.393Z,3.88
2022-09-21T22:43:59.740Z,3.40
2022-09-21T22:46:28.603Z,4.35
2022-09-21T22:48:55.901Z,4.15
2022-09-21T22:51:23.624Z,3.78
2022-09-21T22:53:51.568Z,3.90
2022-09-21T22:56:21.409Z,4.03
2022-09-21T22:58:54.353Z,3.92
2022-09-21T23:01:27.780Z,3.45
2022-09-21T23:03:57.712Z,4.13
2022-09-21T23:06:28.235Z,4.75
2022-09-21T23:08:57.126Z,3.92
2022-09-21T23:11:31.154Z,4.18
2022-09-21T23:13:59.528Z,3.80
2022-09-21T23:16:28.235Z,3.63
2022-09-21T23:18:56.652Z,4.13
2022-09-21T23:21:26.851Z,3.83
2022-09-21T23:24:04.482Z,3.95
2022-09-21T23:26:33.129Z,3.70
2022-09-21T23:29:06.031Z,3.83
2022-09-21T23:31:33.496Z,3.70
2022-09-21T23:34:07.519Z,4.10
2022-09-21T23:36:36.341Z,3.80
2022-09-21T23:39:06.557Z,3.67
2022-09-21T23:41:36.356Z,4.00
2022-09-21T23:44:04.949Z,3.80
2022-09-21T23:46:35.333Z,3.60
2022-09-21T23:49:02.995Z,3.45
2022-09-21T23:51:31.993Z,3.97
2022-09-21T23:54:00.114Z,4.07
2022-09-21T23:56:28.672Z,4.07
2022-09-21T23:58:56.434Z,3.95
